Time;durP1;ratioP1;P1;durP2;ratioP2;P2;SDS_P1;SDS_P2;PMS_P1;PMS_P2;Temp;Humidity;BMP_temperature;BMP_pressure;BME280_temperature;BME280_humidity;BME280_pressure;Samples;Min_cycle;Max_cycle;Signal;HPM_P1;HPM_P2
2023/08/26 00:02:08;;;;;;;27.10;15.63;;;;;;;-148.15;100.00;61821.78;4973826;28;20117;-90
2023/08/26 00:04:34;;;;;;;23.80;14.83;;;;;;;-148.15;100.00;61821.78;4983742;28;20329;-90
2023/08/26 00:07:00;;;;;;;26.77;15.70;;;;;;;-148.15;100.00;61821.78;4982192;28;20035;-90
2023/08/26 00:09:25;;;;;;;25.63;15.48;;;;;;;-148.15;100.00;61821.78;4972770;28;20030;-90
2023/08/26 00:11:51;;;;;;;30.98;14.95;;;;;;;-148.15;100.00;61821.78;4973227;28;20031;-90
2023/08/26 00:14:16;;;;;;;20.90;13.77;;;;;;;-148.15;100.00;61821.78;4972392;28;20045;-90
2023/08/26 00:16:41;;;;;;;20.27;13.13;;;;;;;-148.15;100.00;61821.78;4972432;28;20037;-89
2023/08/26 00:19:06;;;;;;;15.47;10.47;;;;;;;-148.15;100.00;61821.78;4972748;28;20031;-89
2023/08/26 00:21:32;;;;;;;17.07;9.03;;;;;;;-148.15;100.00;61821.78;4972943;28;20082;-89
2023/08/26 00:23:58;;;;;;;17.77;8.43;;;;;;;-148.15;100.00;61821.78;4971949;28;20031;-89
2023/08/26 00:26:23;;;;;;;14.30;8.65;;;;;;;-148.15;100.00;61821.78;4972248;28;20031;-90
2023/08/26 00:28:49;;;;;;;16.80;8.80;;;;;;;-148.15;100.00;61821.78;4972170;28;20031;-89
2023/08/26 00:31:14;;;;;;;12.35;7.95;;;;;;;-148.15;100.00;61821.78;4955235;28;20725;-90
2023/08/26 00:33:40;;;;;;;12.77;7.97;;;;;;;-148.15;100.00;61821.78;4971962;28;20125;-89
2023/08/26 00:36:05;;;;;;;12.20;7.87;;;;;;;-148.15;100.00;61821.78;4972217;28;20584;-90
2023/08/26 00:38:30;;;;;;;12.83;7.10;;;;;;;-148.15;100.00;61821.78;4972250;28;20384;-89
2023/08/26 00:40:56;;;;;;;14.63;7.80;;;;;;;-148.15;100.00;61821.78;4954865;28;20074;-90
2023/08/26 00:43:21;;;;;;;13.05;7.90;;;;;;;-148.15;100.00;61821.78;4972258;28;20030;-90
2023/08/26 00:45:50;;;;;;;13.27;7.50;;;;;;;-148.15;100.00;61821.78;4971991;28;20126;-89
2023/08/26 00:48:16;;;;;;;16.38;6.95;;;;;;;-148.15;100.00;61821.78;4971995;28;20031;-90
2023/08/26 00:50:47;;;;;;;12.60;6.50;;;;;;;-148.15;100.00;61821.78;4972740;28;20490;-89
2023/08/26 00:53:14;;;;;;;12.13;5.73;;;;;;;-148.15;100.00;61821.78;4971936;28;20035;-90
2023/08/26 00:55:40;;;;;;;8.50;5.37;;;;;;;-148.15;100.00;61821.78;4971359;28;20301;-90
2023/08/26 00:58:06;;;;;;;9.55;5.40;;;;;;;-148.15;100.00;61821.78;4971551;28;20033;-90
2023/08/26 01:00:35;;;;;;;8.80;5.47;;;;;;;-148.15;100.00;61821.78;4972214;28;20537;-89
2023/08/26 01:03:01;;;;;;;13.40;5.35;;;;;;;-148.15;100.00;61821.78;4972353;28;20042;-90
2023/08/26 01:05:26;;;;;;;10.10;4.65;;;;;;;-148.15;100.00;61821.78;4971627;28;20023;-91
2023/08/26 01:07:52;;;;;;;11.67;4.50;;;;;;;-148.15;100.00;61821.78;4970855;28;20080;-90
2023/08/26 01:10:19;;;;;;;8.90;4.40;;;;;;;-148.15;100.00;61821.78;4972328;28;20162;-90
2023/08/26 01:12:59;;;;;;;8.45;4.03;;;;;;;-148.15;100.00;61821.78;4971518;28;20509;-89
2023/08/26 01:15:27;;;;;;;9.10;3.92;;;;;;;-148.15;100.00;61821.78;4974469;28;20227;-90
2023/08/26 01:17:53;;;;;;;12.60;3.95;;;;;;;-148.15;100.00;61821.78;4977441;28;20031;-90
2023/08/26 01:20:19;;;;;;;5.30;3.72;;;;;;;-148.15;100.00;61821.78;4976929;28;20053;-90
2023/08/26 01:22:48;;;;;;;8.73;3.47;;;;;;;-148.15;100.00;61821.78;4971704;28;20078;-89
2023/08/26 01:25:13;;;;;;;11.50;3.63;;;;;;;-148.15;100.00;61821.78;4986448;28;20115;-90
2023/08/26 01:27:39;;;;;;;8.07;3.30;;;;;;;-148.15;100.00;61821.78;4972117;28;20051;-89
2023/08/26 01:30:06;;;;;;;11.40;3.13;;;;;;;-148.15;100.00;61821.78;4971971;28;20030;-90
2023/08/26 01:32:42;;;;;;;6.80;3.22;;;;;;;-148.15;100.00;61821.78;4971270;28;20499;-90
2023/08/26 01:35:13;;;;;;;7.38;3.28;;;;;;;-148.15;100.00;61821.78;4971852;28;20117;-90
2023/08/26 01:37:41;;;;;;;12.15;3.70;;;;;;;-148.15;100.00;61821.78;4971008;28;20055;-89
2023/08/26 01:40:09;;;;;;;13.55;3.45;;;;;;;-148.15;100.00;61821.78;4971446;28;20101;-90
2023/08/26 01:42:36;;;;;;;7.18;3.15;;;;;;;-148.15;100.00;61821.78;4971300;28;20110;-89
2023/08/26 01:45:03;;;;;;;9.02;3.40;;;;;;;-148.15;100.00;61821.78;4954725;28;20386;-90
2023/08/26 01:47:28;;;;;;;7.93;3.20;;;;;;;-148.15;100.00;61821.78;4971013;28;20031;-90
2023/08/26 01:49:53;;;;;;;10.43;3.17;;;;;;;-148.15;100.00;61821.78;4971170;28;20350;-90
2023/08/26 01:52:19;;;;;;;10.03;3.20;;;;;;;-148.15;100.00;61821.78;4971463;28;20018;-90
2023/08/26 01:54:49;;;;;;;13.83;2.90;;;;;;;-148.15;100.00;61821.78;4971185;28;20489;-90
2023/08/26 01:57:14;;;;;;;5.28;2.67;;;;;;;-148.15;100.00;61821.78;4970903;28;20034;-90
2023/08/26 01:59:39;;;;;;;9.53;2.70;;;;;;;-148.15;100.00;61821.78;4971281;28;20066;-89
2023/08/26 02:02:05;;;;;;;7.07;3.00;;;;;;;-148.15;100.00;61821.78;4971280;28;20134;-90
2023/08/26 02:04:30;;;;;;;9.60;3.20;;;;;;;-148.15;100.00;61821.78;4971466;28;20289;-90
2023/08/26 02:06:55;;;;;;;6.87;2.83;;;;;;;-148.15;100.00;61821.78;4970600;28;20486;-90
2023/08/26 02:09:21;;;;;;;13.33;3.03;;;;;;;-148.15;100.00;61821.78;4971962;28;20122;-90
2023/08/26 02:11:46;;;;;;;6.50;2.90;;;;;;;-148.15;100.00;61821.78;4971252;28;20085;-90
2023/08/26 02:14:11;;;;;;;10.33;3.00;;;;;;;-148.15;100.00;61821.78;4971388;28;20026;-90
2023/08/26 02:16:37;;;;;;;7.97;3.00;;;;;;;-148.15;100.00;61821.78;4954485;28;20702;-90
2023/08/26 02:19:02;;;;;;;6.80;3.13;;;;;;;-148.15;100.00;61821.78;4975146;28;20761;-91
2023/08/26 02:21:27;;;;;;;11.87;3.30;;;;;;;-148.15;100.00;61821.78;4974864;28;20082;-89
2023/08/26 02:23:53;;;;;;;8.03;3.17;;;;;;;-148.15;100.00;61821.78;4975173;28;20045;-89
2023/08/26 02:26:18;;;;;;;9.40;3.10;;;;;;;-148.15;100.00;61821.78;4974508;28;20109;-91
2023/08/26 02:28:43;;;;;;;10.30;3.03;;;;;;;-148.15;100.00;61821.78;4974821;28;20042;-90
2023/08/26 02:31:08;;;;;;;4.75;3.20;;;;;;;-148.15;100.00;61821.78;4974184;28;20023;-89
2023/08/26 02:33:34;;;;;;;4.00;2.67;;;;;;;-148.15;100.00;61821.78;4974846;28;20027;-90
2023/08/26 02:35:59;;;;;;;7.40;2.50;;;;;;;-148.15;100.00;61821.78;4974204;28;20386;-90
2023/08/26 02:38:25;;;;;;;6.87;2.80;;;;;;;-148.15;100.00;61821.78;4982320;28;20085;-90
2023/08/26 02:40:55;;;;;;;6.17;2.70;;;;;;;-148.15;100.00;61821.78;4978766;28;20118;-89
2023/08/26 02:43:22;;;;;;;10.23;3.03;;;;;;;-148.15;100.00;61821.78;4975211;28;20035;-89
2023/08/26 02:45:57;;;;;;;6.65;3.00;;;;;;;-148.15;100.00;61821.78;4988637;28;20035;-90
2023/08/26 02:48:23;;;;;;;6.00;2.80;;;;;;;-148.15;100.00;61821.78;4976195;28;20023;-89
2023/08/26 02:51:00;;;;;;;7.00;3.17;;;;;;;-148.15;100.00;61821.78;4975407;28;20069;-89
2023/08/26 02:53:26;;;;;;;12.93;2.80;;;;;;;-148.15;100.00;61821.78;4957944;28;20404;-90
2023/08/26 02:55:52;;;;;;;6.60;2.60;;;;;;;-148.15;100.00;61821.78;4975162;28;20286;-89
2023/08/26 02:58:18;;;;;;;8.75;2.67;;;;;;;-148.15;100.00;61821.78;4974618;28;20022;-90
2023/08/26 03:00:44;;;;;;;10.02;2.90;;;;;;;-148.15;100.00;61821.78;4957043;28;20426;-90
2023/08/26 03:03:09;;;;;;;8.45;2.67;;;;;;;-148.15;100.00;61821.78;4974271;28;20026;-90
2023/08/26 03:05:35;;;;;;;7.93;2.50;;;;;;;-148.15;100.00;61821.78;4974196;28;20174;-89
2023/08/26 03:08:00;;;;;;;3.33;2.40;;;;;;;-148.15;100.00;61821.78;4973697;28;20498;-89
2023/08/26 03:10:25;;;;;;;6.23;2.47;;;;;;;-148.15;100.00;61821.78;4974258;28;20523;-89
2023/08/26 03:12:51;;;;;;;5.00;2.50;;;;;;;-148.15;100.00;61821.78;4973810;28;20038;-89
2023/08/26 03:15:16;;;;;;;5.00;2.73;;;;;;;-148.15;100.00;61821.78;4974225;28;20037;-89
2023/08/26 03:17:41;;;;;;;6.03;2.72;;;;;;;-148.15;100.00;61821.78;4973395;28;20042;-89
2023/08/26 03:20:07;;;;;;;10.80;2.60;;;;;;;-148.15;100.00;61821.78;4973938;28;20022;-89
2023/08/26 03:22:32;;;;;;;7.70;2.40;;;;;;;-148.15;100.00;61821.78;4973570;28;20678;-90
2023/08/26 03:24:58;;;;;;;6.85;3.03;;;;;;;-148.15;100.00;61821.78;4956132;28;20501;-90
2023/08/26 03:27:24;;;;;;;11.27;3.07;;;;;;;-148.15;100.00;61821.78;4973198;28;20033;-90
2023/08/26 03:29:50;;;;;;;8.07;2.90;;;;;;;-148.15;100.00;61821.78;4973377;28;20033;-90
2023/08/26 03:32:15;;;;;;;8.67;4.13;;;;;;;-148.15;100.00;61821.78;4973928;28;20446;-89
2023/08/26 03:34:41;;;;;;;5.33;4.10;;;;;;;-148.15;100.00;61821.78;4973637;28;20031;-90
2023/08/26 03:37:06;;;;;;;7.20;4.57;;;;;;;-148.15;100.00;61821.78;4972966;28;20530;-90
2023/08/26 03:39:31;;;;;;;11.05;4.78;;;;;;;-148.15;100.00;61821.78;4973680;28;20025;-89
2023/08/26 03:41:57;;;;;;;10.67;4.93;;;;;;;-148.15;100.00;61821.78;4973185;28;20041;-90
2023/08/26 03:44:22;;;;;;;10.47;4.63;;;;;;;-148.15;100.00;61821.78;4973604;28;20037;-90
2023/08/26 03:46:47;;;;;;;7.67;4.70;;;;;;;-148.15;100.00;61821.78;4972631;28;20114;-90
2023/08/26 03:49:13;;;;;;;8.77;4.40;;;;;;;-148.15;100.00;61821.78;4973275;28;20606;-90
2023/08/26 03:51:38;;;;;;;7.15;4.10;;;;;;;-148.15;100.00;61821.78;4973020;28;20027;-90
2023/08/26 03:54:03;;;;;;;16.83;4.50;;;;;;;-148.15;100.00;61821.78;4973221;28;20086;-89
2023/08/26 03:56:29;;;;;;;9.57;4.13;;;;;;;-148.15;100.00;61821.78;4973124;28;20039;-89
2023/08/26 03:58:56;;;;;;;9.10;4.23;;;;;;;-148.15;100.00;61821.78;4981579;28;20106;-90
2023/08/26 04:01:22;;;;;;;11.13;4.32;;;;;;;-148.15;100.00;61821.78;4956747;28;20117;-90
2023/08/26 04:03:51;;;;;;;8.18;3.97;;;;;;;-148.15;100.00;61821.78;4974599;28;20018;-90
2023/08/26 04:06:17;;;;;;;8.27;3.95;;;;;;;-148.15;100.00;61821.78;4962708;28;20047;-89
2023/08/26 04:08:44;;;;;;;9.40;3.80;;;;;;;-148.15;100.00;61821.78;4973363;28;20544;-89
2023/08/26 04:11:10;;;;;;;6.65;3.42;;;;;;;-148.15;100.00;61821.78;4973108;28;20022;-90
2023/08/26 04:13:35;;;;;;;8.23;3.30;;;;;;;-148.15;100.00;61821.78;4973038;28;20023;-90
2023/08/26 04:16:02;;;;;;;4.03;2.50;;;;;;;-148.15;100.00;61821.78;4972450;28;20035;-89
2023/08/26 04:18:28;;;;;;;7.60;2.60;;;;;;;-148.15;100.00;61821.78;4953543;28;20078;-90
2023/08/26 04:20:53;;;;;;;6.17;2.87;;;;;;;-148.15;100.00;61821.78;4953440;29;20282;-90
2023/08/26 04:23:19;;;;;;;8.07;2.80;;;;;;;-148.15;100.00;61821.78;4953600;28;20039;-90
2023/08/26 04:25:44;;;;;;;7.47;3.30;;;;;;;-148.15;100.00;61821.78;4952736;28;20019;-90
2023/08/26 04:28:11;;;;;;;7.13;2.90;;;;;;;-148.15;100.00;61821.78;4953422;28;20518;-90
2023/08/26 04:30:37;;;;;;;5.85;2.50;;;;;;;-148.15;100.00;61821.78;4959333;28;20482;-89
2023/08/26 04:33:04;;;;;;;6.63;2.20;;;;;;;-148.15;100.00;61821.78;4973739;28;20031;-90
2023/08/26 04:35:30;;;;;;;7.20;2.50;;;;;;;-148.15;100.00;61821.78;4955331;28;20029;-89
2023/08/26 04:37:55;;;;;;;9.02;3.00;;;;;;;-148.15;100.00;61821.78;4971905;28;20023;-90
2023/08/26 04:40:20;;;;;;;9.73;3.47;;;;;;;-148.15;100.00;61821.78;4972178;28;20081;-89
2023/08/26 04:42:46;;;;;;;7.50;3.03;;;;;;;-148.15;100.00;61821.78;4972098;28;20065;-90
2023/08/26 04:45:14;;;;;;;8.15;2.70;;;;;;;-148.15;100.00;61821.78;4972136;28;20093;-90
2023/08/26 04:47:40;;;;;;;7.20;2.73;;;;;;;-148.15;100.00;61821.78;4971797;28;20027;-89
2023/08/26 04:50:06;;;;;;;8.70;3.00;;;;;;;-148.15;100.00;61821.78;4972503;28;20612;-90
2023/08/26 04:52:31;;;;;;;14.15;3.30;;;;;;;-148.15;100.00;61821.78;4972542;28;20027;-91
2023/08/26 04:54:56;;;;;;;13.83;3.10;;;;;;;-148.15;100.00;61821.78;4972204;28;20118;-90
2023/08/26 04:57:22;;;;;;;10.77;4.30;;;;;;;-148.15;100.00;61821.78;4971682;28;20457;-90
2023/08/26 04:59:47;;;;;;;9.80;3.90;;;;;;;-148.15;100.00;61821.78;4954084;28;20534;-90
2023/08/26 05:02:13;;;;;;;7.37;4.13;;;;;;;-148.15;100.00;61821.78;4972404;28;20081;-90
2023/08/26 05:04:38;;;;;;;9.47;3.80;;;;;;;-148.15;100.00;61821.78;4971652;28;20054;-90
2023/08/26 05:07:03;;;;;;;8.77;3.90;;;;;;;-148.15;100.00;61821.78;4971439;28;20022;-90
2023/08/26 05:09:29;;;;;;;5.85;3.92;;;;;;;-148.15;100.00;61821.78;4971998;28;20023;-90
2023/08/26 05:11:58;;;;;;;7.40;3.72;;;;;;;-148.15;100.00;61821.78;4971396;28;20110;-90
2023/08/26 05:14:24;;;;;;;8.50;4.00;;;;;;;-148.15;100.00;61821.78;4971962;28;20025;-90
2023/08/26 05:16:50;;;;;;;9.37;3.80;;;;;;;-148.15;100.00;61821.78;4971154;28;20270;-90
2023/08/26 05:19:15;;;;;;;8.52;3.65;;;;;;;-148.15;100.00;61821.78;4980239;28;20025;-90
2023/08/26 05:21:40;;;;;;;7.50;3.47;;;;;;;-148.15;100.00;61821.78;4985332;28;20541;-91
2023/08/26 05:24:06;;;;;;;8.00;3.10;;;;;;;-148.15;100.00;61821.78;4972513;28;20030;-90
2023/08/26 05:26:32;;;;;;;6.68;3.40;;;;;;;-148.15;100.00;61821.78;4986749;28;20033;-92
2023/08/26 05:28:58;;;;;;;6.70;3.70;;;;;;;-148.15;100.00;61821.78;4978387;28;20030;-92
2023/08/26 05:31:23;;;;;;;8.47;3.60;;;;;;;-148.15;100.00;61821.78;4972281;28;20162;-92
2023/08/26 05:33:49;;;;;;;11.03;4.40;;;;;;;-148.15;100.00;61821.78;4956492;28;20640;-92
2023/08/26 05:36:14;;;;;;;9.00;4.20;;;;;;;-148.15;100.00;61821.78;4971439;28;20033;-92
2023/08/26 05:38:39;;;;;;;8.77;4.20;;;;;;;-148.15;100.00;61821.78;4971738;28;20461;-92
2023/08/26 05:41:05;;;;;;;9.93;4.17;;;;;;;-148.15;100.00;61821.78;4971683;28;20526;-92
2023/08/26 05:43:31;;;;;;;6.13;4.00;;;;;;;-148.15;100.00;61821.78;4971754;28;20023;-91
2023/08/26 05:45:57;;;;;;;9.73;4.23;;;;;;;-148.15;100.00;61821.78;4971001;28;20118;-92
2023/08/26 05:48:22;;;;;;;8.25;4.00;;;;;;;-148.15;100.00;61821.78;4971618;28;20030;-91
2023/08/26 05:50:48;;;;;;;12.67;3.93;;;;;;;-148.15;100.00;61821.78;4971322;28;20030;-93
2023/08/26 05:53:13;;;;;;;11.10;4.20;;;;;;;-148.15;100.00;61821.78;4975880;28;20034;-91
2023/08/26 05:55:41;;;;;;;7.05;4.05;;;;;;;-148.15;100.00;61821.78;4974646;28;20038;-92
2023/08/26 05:58:06;;;;;;;7.30;3.80;;;;;;;-148.15;100.00;61821.78;4958339;28;20050;-91
2023/08/26 06:00:32;;;;;;;5.87;3.13;;;;;;;-148.15;100.00;61821.78;4975709;28;20301;-92
2023/08/26 06:02:57;;;;;;;11.60;3.60;;;;;;;-148.15;100.00;61821.78;4976182;28;20019;-92
2023/08/26 06:05:23;;;;;;;10.13;3.80;;;;;;;-148.15;100.00;61821.78;4976019;28;20077;-91
2023/08/26 06:07:50;;;;;;;9.50;3.57;;;;;;;-148.15;100.00;61821.78;4975242;28;20149;-91
2023/08/26 06:10:16;;;;;;;8.23;3.28;;;;;;;-148.15;100.00;61821.78;4975480;28;20033;-91
2023/08/26 06:12:41;;;;;;;7.47;2.95;;;;;;;-148.15;100.00;61821.78;4975874;28;20441;-91
2023/08/26 06:15:07;;;;;;;8.70;3.30;;;;;;;-148.15;100.00;61821.78;4975477;28;20551;-92
2023/08/26 06:17:34;;;;;;;12.67;3.53;;;;;;;-148.15;100.00;61821.78;4975277;28;20541;-92
2023/08/26 06:19:59;;;;;;;12.43;3.08;;;;;;;-148.15;100.00;61821.78;4975412;28;20034;-92
2023/08/26 06:22:25;;;;;;;9.40;2.83;;;;;;;-148.15;100.00;61821.78;4975694;28;20594;-92
2023/08/26 06:24:50;;;;;;;8.20;3.10;;;;;;;-148.15;100.00;61821.78;4975275;28;20085;-92
2023/08/26 06:27:15;;;;;;;7.23;2.67;;;;;;;-148.15;100.00;61821.78;4975002;28;20023;-92
2023/08/26 06:29:51;;;;;;;10.50;3.00;;;;;;;-148.15;100.00;61821.78;4974929;28;20086;-92
2023/08/26 06:32:16;;;;;;;8.90;2.70;;;;;;;-148.15;100.00;61821.78;4975242;28;20035;-92
2023/08/26 06:34:41;;;;;;;7.17;2.90;;;;;;;-148.15;100.00;61821.78;4974881;28;20615;-92
2023/08/26 06:37:07;;;;;;;10.10;2.70;;;;;;;-148.15;100.00;61821.78;4975550;28;20030;-92
2023/08/26 06:39:32;;;;;;;3.95;2.30;;;;;;;-148.15;100.00;61821.78;4978258;28;20078;-92
2023/08/26 06:41:57;;;;;;;7.80;2.30;;;;;;;-148.15;100.00;61821.78;4996100;28;20045;-91
2023/08/26 06:44:23;;;;;;;5.73;2.43;;;;;;;-148.15;100.00;61821.78;4976289;28;20041;-92
2023/08/26 06:46:48;;;;;;;7.63;2.30;;;;;;;-148.15;100.00;61821.78;4988839;28;20031;-91
2023/08/26 06:49:13;;;;;;;5.97;2.07;;;;;;;-148.15;100.00;61821.78;4991547;28;20466;-92
2023/08/26 06:51:38;;;;;;;7.20;2.30;;;;;;;-148.15;100.00;61821.78;4975743;28;20110;-93
2023/08/26 06:54:04;;;;;;;7.73;2.23;;;;;;;-148.15;100.00;61821.78;4974398;28;20588;-93
2023/08/26 06:56:29;;;;;;;5.97;2.30;;;;;;;-148.15;100.00;61821.78;4977255;28;20062;-92
2023/08/26 06:58:55;;;;;;;6.83;2.50;;;;;;;-148.15;100.00;61821.78;4980122;28;20030;-92
2023/08/26 07:01:20;;;;;;;8.93;2.47;;;;;;;-148.15;100.00;61821.78;4979837;28;20041;-93
2023/08/26 07:03:45;;;;;;;6.07;2.27;;;;;;;-148.15;100.00;61821.78;4978602;28;20029;-91
2023/08/26 07:06:11;;;;;;;8.53;2.33;;;;;;;-148.15;100.00;61821.78;4978966;28;20042;-92
2023/08/26 07:08:36;;;;;;;4.47;2.20;;;;;;;-148.15;100.00;61821.78;4976555;28;20027;-92
2023/08/26 07:11:02;;;;;;;7.40;2.27;;;;;;;-148.15;100.00;61821.78;4976769;28;20023;-92
2023/08/26 07:13:27;;;;;;;9.73;2.23;;;;;;;-148.15;100.00;61821.78;4976557;28;20086;-92
2023/08/26 07:15:52;;;;;;;10.03;2.10;;;;;;;-148.15;100.00;61821.78;4976141;28;20293;-93
2023/08/26 07:18:18;;;;;;;7.70;2.40;;;;;;;-148.15;100.00;61821.78;4977873;28;20073;-92
2023/08/26 07:20:44;;;;;;;7.63;2.07;;;;;;;-148.15;100.00;61821.78;4975564;28;20290;-93
2023/08/26 07:23:09;;;;;;;6.25;1.90;;;;;;;-148.15;100.00;61821.78;4975219;28;20026;-92
2023/08/26 07:25:34;;;;;;;6.83;1.93;;;;;;;-148.15;100.00;61821.78;4975309;28;20031;-92
2023/08/26 07:28:00;;;;;;;11.17;2.33;;;;;;;-148.15;100.00;61821.78;4975720;28;20031;-93
2023/08/26 07:30:26;;;;;;;5.80;1.93;;;;;;;-148.15;100.00;61821.78;4977686;28;20038;-92
2023/08/26 07:33:07;;;;;;;5.40;1.98;;;;;;;-148.15;100.00;61821.78;4979258;28;20042;-94
2023/08/26 07:35:32;;;;;;;6.20;1.85;;;;;;;-148.15;100.00;61821.78;4989007;28;20041;-92
2023/08/26 07:37:58;;;;;;;8.13;2.23;;;;;;;-148.15;100.00;61821.78;4975124;28;20027;-92
2023/08/26 07:40:23;;;;;;;6.65;2.00;;;;;;;-148.15;100.00;61821.78;4974849;28;20110;-92
2023/08/26 07:42:53;;;;;;;3.83;1.80;;;;;;;-148.15;100.00;61821.78;4984724;28;20108;-92
2023/08/26 07:45:19;;;;;;;7.07;2.03;;;;;;;-148.15;100.00;61821.78;4969261;28;20181;-93
2023/08/26 07:47:44;;;;;;;5.90;1.80;;;;;;;-148.15;100.00;61821.78;5026599;23;20070;-93
2023/08/26 07:50:10;;;;;;;7.50;1.90;;;;;;;-148.15;100.00;61821.78;4997383;28;20033;-92
2023/08/26 07:52:36;;;;;;;5.80;1.73;;;;;;;-148.15;100.00;61821.78;4993026;28;20398;-92
2023/08/26 07:55:01;;;;;;;7.60;2.00;;;;;;;-148.15;100.00;61821.78;4993773;28;20121;-93
2023/08/26 07:57:27;;;;;;;7.43;1.57;;;;;;;-148.15;100.00;61821.78;4994246;28;20358;-93
2023/08/26 07:59:54;;;;;;;6.37;1.73;;;;;;;-148.15;100.00;61821.78;4999681;28;20023;-92
2023/08/26 08:02:19;;;;;;;5.45;1.83;;;;;;;-148.15;100.00;61821.78;4981589;28;20086;-92
2023/08/26 08:04:44;;;;;;;10.03;1.80;;;;;;;-148.15;100.00;61821.78;4994013;28;20057;-93
2023/08/26 08:07:10;;;;;;;3.97;1.30;;;;;;;-148.15;100.00;61821.78;5000681;28;20011;-92
2023/08/26 08:09:35;;;;;;;7.88;1.63;;;;;;;-148.15;100.00;61821.78;5009602;28;20037;-92
2023/08/26 08:12:00;;;;;;;8.23;1.63;;;;;;;-148.15;100.00;61821.78;4994374;28;20038;-92
2023/08/26 08:14:26;;;;;;;5.57;1.47;;;;;;;-148.15;100.00;61821.78;4994291;28;20622;-92
2023/08/26 08:16:51;;;;;;;4.47;1.60;;;;;;;-148.15;100.00;61821.78;4993524;28;20030;-93
2023/08/26 08:19:16;;;;;;;6.40;1.70;;;;;;;-148.15;100.00;61821.78;4994238;28;20394;-93
2023/08/26 08:21:42;;;;;;;4.93;1.70;;;;;;;-148.15;100.00;61821.78;4993149;28;20030;-92
2023/08/26 08:24:07;;;;;;;7.87;1.83;;;;;;;-148.15;100.00;61821.78;4988074;28;20290;-94
2023/08/26 08:26:33;;;;;;;5.07;1.40;;;;;;;-148.15;100.00;61821.78;4976769;28;20034;-92
2023/08/26 08:28:59;;;;;;;6.05;1.30;;;;;;;-148.15;100.00;61821.78;4974964;28;20037;-93
2023/08/26 08:31:36;;;;;;;7.67;1.60;;;;;;;-148.15;100.00;61821.78;4977304;28;20019;-93
2023/08/26 08:34:50;;;;;;;7.23;1.50;;;;;;;-148.15;100.00;61821.78;4997789;28;20286;-93
2023/08/26 08:37:15;;;;;;;4.15;1.20;;;;;;;-148.15;100.00;61821.78;5448807;23;20046;-93
2023/08/26 08:42:22;;;;;;;6.93;1.20;;;;;;;-148.15;100.00;61821.78;4959662;28;20125;-92
2023/08/26 08:44:48;;;;;;;4.07;1.15;;;;;;;-148.15;100.00;61821.78;4978137;28;20479;-92
2023/08/26 08:47:14;;;;;;;4.85;0.95;;;;;;;-148.15;100.00;61821.78;4974819;28;20042;-93
2023/08/26 08:49:45;;;;;;;4.25;1.20;;;;;;;-148.15;100.00;61821.78;4985838;28;20023;-93
2023/08/26 08:52:11;;;;;;;3.20;1.30;;;;;;;-148.15;100.00;61821.78;4991021;28;20027;-93
2023/08/26 08:54:37;;;;;;;6.20;1.10;;;;;;;-148.15;100.00;61821.78;4958969;28;20037;-95
2023/08/26 08:57:03;;;;;;;5.05;1.20;;;;;;;-148.15;100.00;61821.78;4975367;28;20106;-95
2023/08/26 08:59:32;;;;;;;5.07;1.25;;;;;;;-148.15;100.00;61821.78;4977843;28;20041;-94
2023/08/26 09:01:59;;;;;;;5.80;1.00;;;;;;;-148.15;100.00;61821.78;4960508;28;20030;-93
2023/08/26 09:04:28;;;;;;;1.97;1.17;;;;;;;-148.15;100.00;61821.78;4976396;28;20297;-93
2023/08/26 09:06:54;;;;;;;3.53;1.30;;;;;;;-148.15;100.00;61821.78;4973569;28;20515;-94
2023/08/26 09:09:20;;;;;;;2.60;1.20;;;;;;;-148.15;100.00;61821.78;4974772;28;20035;-94
2023/08/26 09:11:50;;;;;;;3.28;1.20;;;;;;;-148.15;100.00;61821.78;4981420;28;20066;-94
2023/08/26 09:14:16;;;;;;;3.58;1.15;;;;;;;-148.15;100.00;61821.78;4977403;28;20023;-93
2023/08/26 09:16:43;;;;;;;3.63;1.10;;;;;;;-148.15;100.00;61821.78;4973320;28;20034;-93
2023/08/26 09:19:11;;;;;;;4.20;1.20;;;;;;;-148.15;100.00;61821.78;4974103;28;20023;-94
2023/08/26 09:21:44;;;;;;;2.00;1.10;;;;;;;-148.15;100.00;61821.78;4984059;28;20026;-93
2023/08/26 09:24:14;;;;;;;1.90;1.30;;;;;;;-148.15;100.00;61821.78;4979564;28;20274;-93
2023/08/26 09:26:41;;;;;;;3.03;1.30;;;;;;;-148.15;100.00;61821.78;4982885;28;20027;-93
2023/08/26 09:29:20;;;;;;;4.00;1.27;;;;;;;-148.15;100.00;61821.78;4992941;28;20034;-93
2023/08/26 09:31:56;;;;;;;4.93;1.33;;;;;;;-148.15;100.00;61821.78;4981680;28;20023;-95
2023/08/26 09:34:32;;;;;;;3.53;1.17;;;;;;;-148.15;100.00;61821.78;4967932;28;20037;-95
2023/08/26 09:36:58;;;;;;;3.42;1.35;;;;;;;-148.15;100.00;61821.78;4964739;28;20039;-94
2023/08/26 09:39:23;;;;;;;2.73;1.10;;;;;;;-148.15;100.00;61821.78;4983014;28;20783;-92
2023/08/26 09:41:49;;;;;;;4.80;1.30;;;;;;;-148.15;100.00;61821.78;4979930;28;20515;-92
2023/08/26 09:44:16;;;;;;;3.65;1.30;;;;;;;-148.15;100.00;61821.78;4979375;28;20094;-93
2023/08/26 09:46:43;;;;;;;3.92;1.30;;;;;;;-148.15;100.00;61821.78;4984481;28;20030;-93
2023/08/26 09:49:16;;;;;;;2.97;1.10;;;;;;;-148.15;100.00;61821.78;4978201;28;20034;-95
2023/08/26 09:51:49;;;;;;;3.90;1.30;;;;;;;-148.15;100.00;61821.78;4978782;28;20027;-94
2023/08/26 09:54:18;;;;;;;2.28;1.20;;;;;;;-148.15;100.00;61821.78;4962030;28;20057;-93
2023/08/26 09:56:46;;;;;;;4.63;1.37;;;;;;;-148.15;100.00;61821.78;4978100;28;20098;-92
2023/08/26 09:59:12;;;;;;;3.97;1.30;;;;;;;-148.15;100.00;61821.78;4980822;28;20034;-94
2023/08/26 10:01:39;;;;;;;4.68;1.35;;;;;;;-148.15;100.00;61821.78;4962748;28;20027;-94
2023/08/26 10:04:10;;;;;;;2.22;1.00;;;;;;;-148.15;100.00;61821.78;4980451;28;20034;-94
2023/08/26 10:07:00;;;;;;;3.60;1.25;;;;;;;-148.15;100.00;61821.78;4980360;28;20034;-95
2023/08/26 10:09:46;;;;;;;3.28;1.10;;;;;;;-148.15;100.00;61821.78;4982909;28;20074;-94
2023/08/26 10:12:19;;;;;;;3.93;1.23;;;;;;;-148.15;100.00;61821.78;4984507;28;20695;-93
2023/08/26 10:14:49;;;;;;;4.17;1.30;;;;;;;-148.15;100.00;61821.78;4982229;28;20329;-94
2023/08/26 10:17:17;;;;;;;2.00;1.20;;;;;;;-148.15;100.00;61821.78;4979390;28;20033;-93
2023/08/26 10:19:49;;;;;;;3.90;1.50;;;;;;;-148.15;100.00;61821.78;4977228;28;20082;-94
2023/08/26 10:22:15;;;;;;;4.22;1.20;;;;;;;-148.15;100.00;61821.78;4978035;28;20050;-94
2023/08/26 10:24:42;;;;;;;3.17;1.23;;;;;;;-148.15;100.00;61821.78;4978600;28;20018;-95
2023/08/26 10:27:08;;;;;;;2.65;1.20;;;;;;;-148.15;100.00;61821.78;4957527;28;20078;-92
2023/08/26 10:29:37;;;;;;;1.92;1.05;;;;;;;-148.15;100.00;61821.78;4980540;28;20082;-94
2023/08/26 10:32:20;;;;;;;2.80;1.40;;;;;;;-148.15;100.00;61821.78;4976650;28;20085;-94
2023/08/26 10:34:59;;;;;;;4.85;1.40;;;;;;;-148.15;100.00;61821.78;4958392;28;20035;-92
2023/08/26 10:37:29;;;;;;;3.00;1.30;;;;;;;-148.15;100.00;61821.78;4974559;28;20490;-92
2023/08/26 10:39:55;;;;;;;2.75;1.30;;;;;;;-148.15;100.00;61821.78;4965008;28;20045;-93
2023/08/26 10:52:45;;;;;;;3.42;1.30;;;;;;;-148.15;100.00;61821.78;5257225;23;19933;-92
2023/08/26 10:55:28;;;;;;;2.27;1.40;;;;;;;-148.15;100.00;61821.78;4997214;28;20040;-92
2023/08/26 10:58:11;;;;;;;2.95;1.00;;;;;;;-148.15;100.00;61821.78;4995715;28;20097;-93
2023/08/26 11:00:39;;;;;;;2.58;1.20;;;;;;;-148.15;100.00;61821.78;4996407;28;20030;-92
2023/08/26 11:03:08;;;;;;;2.38;1.20;;;;;;;-148.15;100.00;61821.78;4982078;28;20031;-92
2023/08/26 11:05:36;;;;;;;2.63;1.20;;;;;;;-148.15;100.00;61821.78;4976522;28;20031;-93
2023/08/26 11:08:02;;;;;;;3.03;1.30;;;;;;;-148.15;100.00;61821.78;4976924;28;20027;-92
2023/08/26 11:10:35;;;;;;;1.80;1.27;;;;;;;-148.15;100.00;61821.78;4975686;28;20049;-91
2023/08/26 11:13:01;;;;;;;3.90;1.23;;;;;;;-148.15;100.00;61821.78;4978280;28;20278;-93
2023/08/26 11:15:34;;;;;;;2.78;1.23;;;;;;;-148.15;100.00;61821.78;4977360;28;20030;-93
2023/08/26 11:18:00;;;;;;;3.78;1.13;;;;;;;-148.15;100.00;61821.78;4977517;28;20372;-93
2023/08/26 11:20:28;;;;;;;1.98;1.10;;;;;;;-148.15;100.00;61821.78;4961032;28;20022;-94